sensor_id;sensor_type;location;lat;lon;timestamp;pressure;altitude;pressure_sealevel;temperature;humidity
63097;BME280;49185;42.320;23.198;2024-02-23T00:00:23;94650.75;;;5.73;100.00
63097;BME280;49185;42.320;23.198;2024-02-23T00:02:49;94655.53;;;5.20;100.00
63097;BME280;49185;42.320;23.198;2024-02-23T00:05:14;94643.31;;;5.01;100.00
63097;BME280;49185;42.320;23.198;2024-02-23T00:07:39;94646.13;;;4.81;100.00
63097;BME280;49185;42.320;23.198;2024-02-23T00:10:05;94644.53;;;5.05;100.00
63097;BME280;49185;42.320;23.198;2024-02-23T00:12:31;94642.28;;;5.27;100.00
63097;BME280;49185;42.320;23.198;2024-02-23T00:14:57;94636.06;;;5.40;100.00
63097;BME280;49185;42.320;23.198;2024-02-23T00:17:22;94633.44;;;5.40;100.00
63097;BME280;49185;42.320;23.198;2024-02-23T00:19:47;94634.94;;;5.10;100.00
63097;BME280;49185;42.320;23.198;2024-02-23T00:22:13;94631.09;;;5.06;100.00
63097;BME280;49185;42.320;23.198;2024-02-23T00:24:38;94630.22;;;4.94;100.00
63097;BME280;49185;42.320;23.198;2024-02-23T00:27:04;94637.09;;;4.95;100.00
63097;BME280;49185;42.320;23.198;2024-02-23T00:29:29;94647.66;;;4.63;100.00
63097;BME280;49185;42.320;23.198;2024-02-23T00:31:54;94630.91;;;4.51;100.00
63097;BME280;49185;42.320;23.198;2024-02-23T00:34:20;94637.88;;;4.38;100.00
63097;BME280;49185;42.320;23.198;2024-02-23T00:36:45;94635.22;;;4.45;100.00
63097;BME280;49185;42.320;23.198;2024-02-23T00:39:11;94628.63;;;4.86;100.00
63097;BME280;49185;42.320;23.198;2024-02-23T00:41:37;94632.44;;;4.65;100.00
63097;BME280;49185;42.320;23.198;2024-02-23T00:44:03;94618.09;;;4.61;100.00
63097;BME280;49185;42.320;23.198;2024-02-23T00:46:28;94616.69;;;4.59;100.00
63097;BME280;49185;42.320;23.198;2024-02-23T00:48:53;94621.00;;;4.78;100.00
63097;BME280;49185;42.320;23.198;2024-02-23T00:51:19;94623.94;;;4.63;100.00
63097;BME280;49185;42.320;23.198;2024-02-23T00:53:44;94627.66;;;4.55;100.00
63097;BME280;49185;42.320;23.198;2024-02-23T00:56:10;94625.41;;;4.59;100.00
63097;BME280;49185;42.320;23.198;2024-02-23T00:58:35;94613.16;;;4.71;100.00
63097;BME280;49185;42.320;23.198;2024-02-23T01:01:00;94626.66;;;4.82;100.00
63097;BME280;49185;42.320;23.198;2024-02-23T01:03:26;94621.34;;;4.56;100.00
63097;BME280;49185;42.320;23.198;2024-02-23T01:05:51;94622.94;;;4.64;100.00
63097;BME280;49185;42.320;23.198;2024-02-23T01:08:17;94622.38;;;4.55;100.00
63097;BME280;49185;42.320;23.198;2024-02-23T01:10:45;94615.78;;;4.46;100.00
63097;BME280;49185;42.320;23.198;2024-02-23T01:13:10;94619.00;;;4.48;100.00
63097;BME280;49185;42.320;23.198;2024-02-23T01:15:36;94618.72;;;4.25;100.00
63097;BME280;49185;42.320;23.198;2024-02-23T01:18:03;94612.47;;;4.19;100.00
63097;BME280;49185;42.320;23.198;2024-02-23T01:20:28;94609.75;;;4.01;100.00
63097;BME280;49185;42.320;23.198;2024-02-23T01:22:54;94605.63;;;4.11;100.00
63097;BME280;49185;42.320;23.198;2024-02-23T01:25:19;94605.66;;;4.68;100.00
63097;BME280;49185;42.320;23.198;2024-02-23T01:27:44;94604.03;;;4.67;100.00
63097;BME280;49185;42.320;23.198;2024-02-23T01:30:10;94615.53;;;5.05;100.00
63097;BME280;49185;42.320;23.198;2024-02-23T01:32:36;94613.94;;;4.97;100.00
63097;BME280;49185;42.320;23.198;2024-02-23T01:35:01;94600.38;;;4.93;100.00
63097;BME280;49185;42.320;23.198;2024-02-23T01:37:26;94602.56;;;5.03;100.00
63097;BME280;49185;42.320;23.198;2024-02-23T01:39:52;94592.97;;;5.09;100.00
63097;BME280;49185;42.320;23.198;2024-02-23T01:42:17;94595.97;;;5.12;100.00
63097;BME280;49185;42.320;23.198;2024-02-23T01:44:43;94603.78;;;5.01;100.00
63097;BME280;49185;42.320;23.198;2024-02-23T01:47:08;94597.16;;;4.91;100.00
63097;BME280;49185;42.320;23.198;2024-02-23T01:49:34;94604.91;;;4.86;100.00
63097;BME280;49185;42.320;23.198;2024-02-23T01:52:03;94602.28;;;4.86;100.00
63097;BME280;49185;42.320;23.198;2024-02-23T01:54:29;94600.81;;;4.90;100.00
63097;BME280;49185;42.320;23.198;2024-02-23T01:56:56;94597.44;;;4.83;100.00
63097;BME280;49185;42.320;23.198;2024-02-23T01:59:23;94591.41;;;4.76;100.00
63097;BME280;49185;42.320;23.198;2024-02-23T02:01:49;94588.91;;;4.63;100.00
63097;BME280;49185;42.320;23.198;2024-02-23T02:04:14;94587.75;;;4.52;100.00
63097;BME280;49185;42.320;23.198;2024-02-23T02:06:39;94589.84;;;4.43;100.00
63097;BME280;49185;42.320;23.198;2024-02-23T02:09:05;94589.50;;;4.33;100.00
63097;BME280;49185;42.320;23.198;2024-02-23T02:11:31;94592.59;;;4.23;100.00
63097;BME280;49185;42.320;23.198;2024-02-23T02:13:56;94588.75;;;4.26;100.00
63097;BME280;49185;42.320;23.198;2024-02-23T02:16:22;94584.06;;;4.28;100.00
63097;BME280;49185;42.320;23.198;2024-02-23T02:18:47;94587.81;;;4.13;100.00
63097;BME280;49185;42.320;23.198;2024-02-23T02:21:12;94581.47;;;4.21;100.00
63097;BME280;49185;42.320;23.198;2024-02-23T02:23:38;94566.13;;;4.18;100.00
63097;BME280;49185;42.320;23.198;2024-02-23T02:26:04;94574.78;;;4.25;100.00
63097;BME280;49185;42.320;23.198;2024-02-23T02:28:29;94577.41;;;4.25;100.00
63097;BME280;49185;42.320;23.198;2024-02-23T02:30:55;94577.34;;;4.32;100.00
63097;BME280;49185;42.320;23.198;2024-02-23T02:33:21;94580.03;;;4.25;100.00
63097;BME280;49185;42.320;23.198;2024-02-23T02:35:47;94557.72;;;4.28;100.00
63097;BME280;49185;42.320;23.198;2024-02-23T02:38:13;94571.94;;;4.27;100.00
63097;BME280;49185;42.320;23.198;2024-02-23T02:40:39;94564.84;;;4.27;100.00
63097;BME280;49185;42.320;23.198;2024-02-23T02:43:04;94567.47;;;3.95;100.00
63097;BME280;49185;42.320;23.198;2024-02-23T02:45:30;94569.19;;;3.70;100.00
63097;BME280;49185;42.320;23.198;2024-02-23T02:47:56;94565.59;;;3.64;100.00
63097;BME280;49185;42.320;23.198;2024-02-23T02:50:21;94566.75;;;3.75;100.00
63097;BME280;49185;42.320;23.198;2024-02-23T02:52:46;94560.22;;;4.16;100.00
63097;BME280;49185;42.320;23.198;2024-02-23T02:55:12;94564.28;;;4.18;100.00
63097;BME280;49185;42.320;23.198;2024-02-23T02:57:37;94557.72;;;4.28;100.00
63097;BME280;49185;42.320;23.198;2024-02-23T03:00:04;94568.69;;;4.25;100.00
63097;BME280;49185;42.320;23.198;2024-02-23T03:02:29;94565.66;;;4.21;100.00
63097;BME280;49185;42.320;23.198;2024-02-23T03:04:54;94560.72;;;4.38;100.00
63097;BME280;49185;42.320;23.198;2024-02-23T03:07:20;94563.31;;;4.45;100.00
63097;BME280;49185;42.320;23.198;2024-02-23T03:09:45;94576.69;;;4.43;100.00
63097;BME280;49185;42.320;23.198;2024-02-23T03:12:11;94560.16;;;4.29;100.00
63097;BME280;49185;42.320;23.198;2024-02-23T03:14:36;94557.41;;;4.17;100.00
63097;BME280;49185;42.320;23.198;2024-02-23T03:17:02;94555.31;;;4.26;100.00
63097;BME280;49185;42.320;23.198;2024-02-23T03:19:27;94559.94;;;4.31;100.00
63097;BME280;49185;42.320;23.198;2024-02-23T03:21:52;94551.72;;;4.21;100.00
63097;BME280;49185;42.320;23.198;2024-02-23T03:24:18;94544.44;;;4.16;100.00
63097;BME280;49185;42.320;23.198;2024-02-23T03:26:43;94553.00;;;4.11;100.00
63097;BME280;49185;42.320;23.198;2024-02-23T03:29:09;94549.38;;;4.06;100.00
63097;BME280;49185;42.320;23.198;2024-02-23T03:31:35;94564.09;;;3.82;100.00
63097;BME280;49185;42.320;23.198;2024-02-23T03:34:01;94567.06;;;3.47;100.00
63097;BME280;49185;42.320;23.198;2024-02-23T03:36:27;94556.16;;;3.43;100.00
63097;BME280;49185;42.320;23.198;2024-02-23T03:38:52;94579.88;;;3.30;100.00
63097;BME280;49185;42.320;23.198;2024-02-23T03:41:18;94559.44;;;3.25;100.00
63097;BME280;49185;42.320;23.198;2024-02-23T03:43:43;94557.59;;;3.39;100.00
63097;BME280;49185;42.320;23.198;2024-02-23T03:46:08;94563.69;;;3.78;100.00
63097;BME280;49185;42.320;23.198;2024-02-23T03:48:34;94571.78;;;3.83;100.00
63097;BME280;49185;42.320;23.198;2024-02-23T03:50:59;94581.59;;;3.56;100.00
63097;BME280;49185;42.320;23.198;2024-02-23T03:53:24;94577.22;;;3.36;100.00
63097;BME280;49185;42.320;23.198;2024-02-23T03:55:50;94580.09;;;3.15;100.00
63097;BME280;49185;42.320;23.198;2024-02-23T03:58:15;94593.41;;;3.40;100.00
63097;BME280;49185;42.320;23.198;2024-02-23T04:00:40;94579.81;;;3.43;100.00
63097;BME280;49185;42.320;23.198;2024-02-23T04:03:07;94574.75;;;3.48;100.00
63097;BME280;49185;42.320;23.198;2024-02-23T04:05:32;94579.88;;;3.30;100.00
63097;BME280;49185;42.320;23.198;2024-02-23T04:07:58;94578.38;;;3.54;100.00
63097;BME280;49185;42.320;23.198;2024-02-23T04:10:23;94577.25;;;3.82;100.00
63097;BME280;49185;42.320;23.198;2024-02-23T04:12:48;94578.81;;;3.44;100.00
63097;BME280;49185;42.320;23.198;2024-02-23T04:15:14;94583.91;;;3.26;100.00
63097;BME280;49185;42.320;23.198;2024-02-23T04:17:42;94580.13;;;3.08;100.00
63097;BME280;49185;42.320;23.198;2024-02-23T04:20:07;94589.03;;;2.94;100.00
63097;BME280;49185;42.320;23.198;2024-02-23T04:22:33;94582.19;;;2.86;100.00
63097;BME280;49185;42.320;23.198;2024-02-23T04:24:59;94579.97;;;2.70;100.00
63097;BME280;49185;42.320;23.198;2024-02-23T04:27:24;94586.41;;;2.94;100.00
63097;BME280;49185;42.320;23.198;2024-02-23T04:29:50;94587.66;;;2.64;100.00
63097;BME280;49185;42.320;23.198;2024-02-23T04:32:15;94580.78;;;2.70;100.00
63097;BME280;49185;42.320;23.198;2024-02-23T04:34:40;94586.38;;;3.14;100.00
63097;BME280;49185;42.320;23.198;2024-02-23T04:37:06;94597.50;;;3.09;100.00
63097;BME280;49185;42.320;23.198;2024-02-23T04:39:31;94590.59;;;3.21;100.00
63097;BME280;49185;42.320;23.198;2024-02-23T04:41:56;94590.63;;;3.15;100.00
63097;BME280;49185;42.320;23.198;2024-02-23T04:44:22;94598.47;;;3.35;100.00
63097;BME280;49185;42.320;23.198;2024-02-23T04:46:48;94584.97;;;3.76;100.00
63097;BME280;49185;42.320;23.198;2024-02-23T04:49:13;94574.69;;;4.07;100.00
63097;BME280;49185;42.320;23.198;2024-02-23T04:51:39;94582.50;;;4.20;100.00
63097;BME280;49185;42.320;23.198;2024-02-23T04:54:04;94593.25;;;4.18;100.00
63097;BME280;49185;42.320;23.198;2024-02-23T04:56:29;94590.13;;;4.28;100.00
63097;BME280;49185;42.320;23.198;2024-02-23T04:58:55;94578.38;;;4.31;100.00
63097;BME280;49185;42.320;23.198;2024-02-23T05:01:20;94590.09;;;4.35;100.00
63097;BME280;49185;42.320;23.198;2024-02-23T05:03:45;94591.56;;;4.56;100.00
63097;BME280;49185;42.320;23.198;2024-02-23T05:06:11;94587.31;;;4.55;100.00
63097;BME280;49185;42.320;23.198;2024-02-23T05:08:36;94583.03;;;4.61;100.00
63097;BME280;49185;42.320;23.198;2024-02-23T05:11:02;94585.97;;;4.71;100.00
63097;BME280;49185;42.320;23.198;2024-02-23T05:13:27;94594.34;;;4.68;100.00
63097;BME280;49185;42.320;23.198;2024-02-23T05:15:55;94588.31;;;4.61;100.00
63097;BME280;49185;42.320;23.198;2024-02-23T05:18:21;94578.34;;;4.63;100.00
63097;BME280;49185;42.320;23.198;2024-02-23T05:20:46;94581.03;;;4.56;100.00
63097;BME280;49185;42.320;23.198;2024-02-23T05:23:11;94579.66;;;4.53;100.00
63097;BME280;49185;42.320;23.198;2024-02-23T05:25:37;94577.81;;;4.54;100.00
63097;BME280;49185;42.320;23.198;2024-02-23T05:28:02;94584.16;;;4.46;100.00
63097;BME280;49185;42.320;23.198;2024-02-23T05:30:28;94574.44;;;4.47;100.00
63097;BME280;49185;42.320;23.198;2024-02-23T05:32:53;94583.28;;;4.52;100.00
63097;BME280;49185;42.320;23.198;2024-02-23T05:35:18;94586.25;;;4.63;100.00
63097;BME280;49185;42.320;23.198;2024-02-23T05:37:44;94591.16;;;4.59;100.00
63097;BME280;49185;42.320;23.198;2024-02-23T05:40:09;94582.81;;;4.62;100.00
63097;BME280;49185;42.320;23.198;2024-02-23T05:42:37;94595.84;;;4.82;100.00
63097;BME280;49185;42.320;23.198;2024-02-23T05:45:03;94591.91;;;4.91;100.00
63097;BME280;49185;42.320;23.198;2024-02-23T05:47:29;94587.69;;;5.27;100.00
63097;BME280;49185;42.320;23.198;2024-02-23T05:49:54;94606.56;;;5.49;100.00
63097;BME280;49185;42.320;23.198;2024-02-23T05:52:19;94591.38;;;5.63;100.00
63097;BME280;49185;42.320;23.198;2024-02-23T05:54:45;94606.47;;;5.75;100.00
63097;BME280;49185;42.320;23.198;2024-02-23T05:57:10;94611.72;;;5.93;100.00
63097;BME280;49185;42.320;23.198;2024-02-23T05:59:35;94601.94;;;6.00;100.00
63097;BME280;49185;42.320;23.198;2024-02-23T06:02:01;94604.47;;;6.07;100.00
63097;BME280;49185;42.320;23.198;2024-02-23T06:04:26;94613.22;;;6.07;100.00
63097;BME280;49185;42.320;23.198;2024-02-23T06:06:52;94622.44;;;6.17;100.00
63097;BME280;49185;42.320;23.198;2024-02-23T06:09:17;94625.13;;;6.29;100.00
63097;BME280;49185;42.320;23.198;2024-02-23T06:11:42;94615.72;;;6.33;100.00
63097;BME280;49185;42.320;23.198;2024-02-23T06:14:08;94632.94;;;6.65;100.00
63097;BME280;49185;42.320;23.198;2024-02-23T06:16:34;94628.66;;;7.18;100.00
63097;BME280;49185;42.320;23.198;2024-02-23T06:18:59;94635.22;;;8.04;100.00
63097;BME280;49185;42.320;23.198;2024-02-23T06:21:25;94643.28;;;8.49;100.00
63097;BME280;49185;42.320;23.198;2024-02-23T06:23:50;94631.22;;;9.04;100.00
63097;BME280;49185;42.320;23.198;2024-02-23T06:26:15;94643.38;;;10.12;100.00
63097;BME280;49185;42.320;23.198;2024-02-23T06:28:41;94641.72;;;10.06;99.38
63097;BME280;49185;42.320;23.198;2024-02-23T06:31:07;94641.78;;;10.33;99.22
63097;BME280;49185;42.320;23.198;2024-02-23T06:33:33;94626.28;;;9.86;100.00
63097;BME280;49185;42.320;23.198;2024-02-23T06:35:58;94642.00;;;8.81;100.00
63097;BME280;49185;42.320;23.198;2024-02-23T06:38:23;94642.72;;;9.27;100.00
63097;BME280;49185;42.320;23.198;2024-02-23T06:40:49;94648.59;;;9.46;100.00
63097;BME280;49185;42.320;23.198;2024-02-23T06:43:14;94652.84;;;9.64;100.00
63097;BME280;49185;42.320;23.198;2024-02-23T06:45:40;94648.91;;;9.49;100.00
63097;BME280;49185;42.320;23.198;2024-02-23T06:48:05;94654.06;;;9.39;100.00
63097;BME280;49185;42.320;23.198;2024-02-23T06:50:31;94652.44;;;9.94;100.00
63097;BME280;49185;42.320;23.198;2024-02-23T06:52:56;94651.50;;;9.83;100.00
63097;BME280;49185;42.320;23.198;2024-02-23T06:55:22;94653.66;;;8.97;100.00
63097;BME280;49185;42.320;23.198;2024-02-23T06:57:47;94637.56;;;9.20;100.00
63097;BME280;49185;42.320;23.198;2024-02-23T07:00:13;94656.16;;;9.37;100.00
63097;BME280;49185;42.320;23.198;2024-02-23T07:02:39;94657.31;;;9.24;100.00
63097;BME280;49185;42.320;23.198;2024-02-23T07:05:04;94657.03;;;8.75;100.00
63097;BME280;49185;42.320;23.198;2024-02-23T07:07:31;94643.84;;;8.51;100.00
63097;BME280;49185;42.320;23.198;2024-02-23T07:09:56;94654.66;;;8.62;100.00
63097;BME280;49185;42.320;23.198;2024-02-23T07:12:22;94640.31;;;9.25;100.00
63097;BME280;49185;42.320;23.198;2024-02-23T07:14:48;94645.44;;;9.49;100.00
63097;BME280;49185;42.320;23.198;2024-02-23T07:17:17;94653.03;;;9.23;100.00
63097;BME280;49185;42.320;23.198;2024-02-23T07:19:42;94646.03;;;9.34;100.00
63097;BME280;49185;42.320;23.198;2024-02-23T07:22:08;94652.69;;;8.86;100.00
63097;BME280;49185;42.320;23.198;2024-02-23T07:24:33;94634.19;;;9.81;100.00
63097;BME280;49185;42.320;23.198;2024-02-23T07:26:58;94657.38;;;9.85;100.00
63097;BME280;49185;42.320;23.198;2024-02-23T07:29:24;94640.19;;;11.19;99.93
63097;BME280;49185;42.320;23.198;2024-02-23T07:31:49;94635.44;;;11.21;98.79
63097;BME280;49185;42.320;23.198;2024-02-23T07:34:14;94640.44;;;11.50;97.20
63097;BME280;49185;42.320;23.198;2024-02-23T07:36:40;94629.75;;;11.45;96.71
63097;BME280;49185;42.320;23.198;2024-02-23T07:39:05;94618.72;;;11.31;97.44
63097;BME280;49185;42.320;23.198;2024-02-23T07:41:30;94624.03;;;11.31;98.26
63097;BME280;49185;42.320;23.198;2024-02-23T07:43:56;94613.97;;;11.00;96.41
63097;BME280;49185;42.320;23.198;2024-02-23T07:46:21;94625.66;;;10.99;97.46
63097;BME280;49185;42.320;23.198;2024-02-23T07:48:47;94618.00;;;11.40;95.47
63097;BME280;49185;42.320;23.198;2024-02-23T07:51:12;94618.34;;;11.49;91.81
63097;BME280;49185;42.320;23.198;2024-02-23T07:53:37;94612.03;;;12.13;88.90
63097;BME280;49185;42.320;23.198;2024-02-23T07:56:03;94599.03;;;12.43;86.00
63097;BME280;49185;42.320;23.198;2024-02-23T07:58:28;94608.63;;;12.33;87.38
63097;BME280;49185;42.320;23.198;2024-02-23T08:00:54;94603.41;;;13.05;84.18
63097;BME280;49185;42.320;23.198;2024-02-23T08:03:19;94611.13;;;12.91;84.60
63097;BME280;49185;42.320;23.198;2024-02-23T08:05:45;94594.09;;;12.04;88.24
63097;BME280;49185;42.320;23.198;2024-02-23T08:08:10;94610.34;;;11.92;85.87
63097;BME280;49185;42.320;23.198;2024-02-23T08:10:35;94605.00;;;11.92;90.30
63097;BME280;49185;42.320;23.198;2024-02-23T08:13:01;94615.38;;;11.51;91.89
63097;BME280;49185;42.320;23.198;2024-02-23T08:15:27;94603.75;;;11.62;88.66
63097;BME280;49185;42.320;23.198;2024-02-23T08:17:52;94608.16;;;12.57;87.91
63097;BME280;49185;42.320;23.198;2024-02-23T08:20:18;94604.19;;;12.85;80.35
63097;BME280;49185;42.320;23.198;2024-02-23T08:22:43;94601.53;;;12.75;79.18
63097;BME280;49185;42.320;23.198;2024-02-23T08:25:09;94592.19;;;13.39;76.69
63097;BME280;49185;42.320;23.198;2024-02-23T08:27:34;94599.38;;;13.54;71.36
63097;BME280;49185;42.320;23.198;2024-02-23T08:30:00;94594.25;;;13.78;71.15
63097;BME280;49185;42.320;23.198;2024-02-23T08:32:25;94598.88;;;13.42;75.14
63097;BME280;49185;42.320;23.198;2024-02-23T08:34:51;94601.22;;;13.79;69.28
63097;BME280;49185;42.320;23.198;2024-02-23T08:37:17;94602.59;;;14.87;66.22
63097;BME280;49185;42.320;23.198;2024-02-23T08:39:42;94598.19;;;14.07;67.68
63097;BME280;49185;42.320;23.198;2024-02-23T08:42:08;94618.31;;;13.89;68.38
63097;BME280;49185;42.320;23.198;2024-02-23T08:44:33;94616.38;;;14.10;63.96
63097;BME280;49185;42.320;23.198;2024-02-23T08:46:58;94622.09;;;14.42;64.96
63097;BME280;49185;42.320;23.198;2024-02-23T08:49:24;94614.91;;;14.38;62.57
63097;BME280;49185;42.320;23.198;2024-02-23T08:51:49;94622.84;;;14.53;60.53
63097;BME280;49185;42.320;23.198;2024-02-23T08:54:15;94620.25;;;14.43;61.97
63097;BME280;49185;42.320;23.198;2024-02-23T08:56:40;94597.91;;;14.73;56.75
63097;BME280;49185;42.320;23.198;2024-02-23T08:59:05;94604.63;;;14.66;61.14
63097;BME280;49185;42.320;23.198;2024-02-23T09:01:31;94612.44;;;15.02;58.47
63097;BME280;49185;42.320;23.198;2024-02-23T09:03:56;94627.63;;;14.01;60.02
63097;BME280;49185;42.320;23.198;2024-02-23T09:06:22;94622.50;;;14.15;59.74
63097;BME280;49185;42.320;23.198;2024-02-23T09:08:47;94626.13;;;13.28;61.64
63097;BME280;49185;42.320;23.198;2024-02-23T09:11:12;94625.06;;;14.41;58.48
63097;BME280;49185;42.320;23.198;2024-02-23T09:13:38;94626.34;;;15.04;62.13
63097;BME280;49185;42.320;23.198;2024-02-23T09:16:03;94625.06;;;15.60;62.08
63097;BME280;49185;42.320;23.198;2024-02-23T09:18:29;94626.97;;;14.35;58.52
63097;BME280;49185;42.320;23.198;2024-02-23T09:20:54;94635.75;;;14.41;62.50
63097;BME280;49185;42.320;23.198;2024-02-23T09:23:19;94628.34;;;14.28;59.66
63097;BME280;49185;42.320;23.198;2024-02-23T09:25:45;94623.97;;;14.47;59.06
63097;BME280;49185;42.320;23.198;2024-02-23T09:28:10;94624.66;;;14.78;59.60
63097;BME280;49185;42.320;23.198;2024-02-23T09:30:36;94619.66;;;15.01;61.72
63097;BME280;49185;42.320;23.198;2024-02-23T09:33:01;94632.25;;;15.35;58.24
63097;BME280;49185;42.320;23.198;2024-02-23T09:35:26;94619.88;;;15.44;57.12
63097;BME280;49185;42.320;23.198;2024-02-23T09:37:52;94630.34;;;15.06;59.50
63097;BME280;49185;42.320;23.198;2024-02-23T09:40:17;94635.63;;;15.16;58.65
63097;BME280;49185;42.320;23.198;2024-02-23T09:42:43;94627.34;;;15.13;58.70
63097;BME280;49185;42.320;23.198;2024-02-23T09:45:13;94610.91;;;15.88;56.47
63097;BME280;49185;42.320;23.198;2024-02-23T09:47:40;94619.91;;;15.98;58.91
63097;BME280;49185;42.320;23.198;2024-02-23T09:50:06;94627.94;;;16.46;57.24
63097;BME280;49185;42.320;23.198;2024-02-23T09:52:33;94623.63;;;16.26;55.84
63097;BME280;49185;42.320;23.198;2024-02-23T09:54:59;94617.66;;;16.53;54.94
63097;BME280;49185;42.320;23.198;2024-02-23T09:57:24;94616.59;;;16.06;54.94
63097;BME280;49185;42.320;23.198;2024-02-23T09:59:50;94605.22;;;16.57;54.19
63097;BME280;49185;42.320;23.198;2024-02-23T10:02:16;94597.94;;;15.96;54.66
63097;BME280;49185;42.320;23.198;2024-02-23T10:04:43;94607.06;;;16.19;53.87
63097;BME280;49185;42.320;23.198;2024-02-23T10:07:08;94607.13;;;16.57;55.28
63097;BME280;49185;42.320;23.198;2024-02-23T10:09:34;94595.06;;;16.11;52.84
63097;BME280;49185;42.320;23.198;2024-02-23T10:12:03;94605.66;;;16.45;52.18
63097;BME280;49185;42.320;23.198;2024-02-23T10:14:29;94582.53;;;16.68;53.92
63097;BME280;49185;42.320;23.198;2024-02-23T10:16:54;94600.72;;;16.33;54.32
63097;BME280;49185;42.320;23.198;2024-02-23T10:19:20;94591.34;;;16.93;52.58
63097;BME280;49185;42.320;23.198;2024-02-23T10:21:45;94584.22;;;16.21;50.41
63097;BME280;49185;42.320;23.198;2024-02-23T10:24:11;94586.22;;;16.73;51.87
63097;BME280;49185;42.320;23.198;2024-02-23T10:26:36;94581.06;;;16.57;53.63
63097;BME280;49185;42.320;23.198;2024-02-23T10:29:02;94579.31;;;16.47;50.13
63097;BME280;49185;42.320;23.198;2024-02-23T10:31:28;94582.47;;;16.30;51.73
63097;BME280;49185;42.320;23.198;2024-02-23T10:33:57;94583.31;;;15.83;52.66
63097;BME280;49185;42.320;23.198;2024-02-23T10:36:24;94583.69;;;15.71;53.23
63097;BME280;49185;42.320;23.198;2024-02-23T10:38:54;94581.78;;;15.77;53.36
63097;BME280;49185;42.320;23.198;2024-02-23T10:41:22;94569.38;;;16.29;50.88
63097;BME280;49185;42.320;23.198;2024-02-23T10:43:48;94575.03;;;15.74;53.22
63097;BME280;49185;42.320;23.198;2024-02-23T10:46:14;94568.88;;;15.49;52.35
63097;BME280;49185;42.320;23.198;2024-02-23T10:48:44;94565.97;;;15.70;53.28
63097;BME280;49185;42.320;23.198;2024-02-23T10:51:12;94559.97;;;15.83;52.68
63097;BME280;49185;42.320;23.198;2024-02-23T10:53:43;94566.41;;;15.82;54.86
63097;BME280;49185;42.320;23.198;2024-02-23T10:56:10;94563.34;;;16.37;54.75
63097;BME280;49185;42.320;23.198;2024-02-23T10:58:35;94556.78;;;15.81;51.74
63097;BME280;49185;42.320;23.198;2024-02-23T11:01:03;94549.31;;;15.78;53.19
63097;BME280;49185;42.320;23.198;2024-02-23T11:03:30;94538.00;;;15.81;51.75
63097;BME280;49185;42.320;23.198;2024-02-23T11:05:56;94545.16;;;15.03;53.27
63097;BME280;49185;42.320;23.198;2024-02-23T11:08:22;94546.53;;;15.00;55.51
63097;BME280;49185;42.320;23.198;2024-02-23T11:10:51;94540.97;;;15.50;56.49
63097;BME280;49185;42.320;23.198;2024-02-23T11:13:16;94543.78;;;15.64;53.11
63097;BME280;49185;42.320;23.198;2024-02-23T11:15:42;94534.25;;;15.53;53.68
63097;BME280;49185;42.320;23.198;2024-02-23T11:18:26;94540.84;;;15.90;53.23
63097;BME280;49185;42.320;23.198;2024-02-23T11:20:56;94543.22;;;15.14;53.16
63097;BME280;49185;42.320;23.198;2024-02-23T11:23:23;94527.44;;;15.36;51.85
63097;BME280;49185;42.320;23.198;2024-02-23T11:26:20;94530.03;;;15.17;53.35
63097;BME280;49185;42.320;23.198;2024-02-23T11:28:49;94532.34;;;15.00;53.51
63097;BME280;49185;42.320;23.198;2024-02-23T11:31:15;94536.44;;;15.22;52.29
63097;BME280;49185;42.320;23.198;2024-02-23T11:33:56;94517.75;;;15.65;50.96
63097;BME280;49185;42.320;23.198;2024-02-23T11:36:29;94522.41;;;15.83;51.35
63097;BME280;49185;42.320;23.198;2024-02-23T11:38:59;94519.78;;;15.78;50.85
63097;BME280;49185;42.320;23.198;2024-02-23T11:41:26;94511.47;;;15.50;51.47
63097;BME280;49185;42.320;23.198;2024-02-23T11:43:53;94506.09;;;15.80;50.94
63097;BME280;49185;42.320;23.198;2024-02-23T11:46:19;94512.31;;;15.75;51.71
63097;BME280;49185;42.320;23.198;2024-02-23T11:48:45;94502.25;;;15.86;51.75
63097;BME280;49185;42.320;23.198;2024-02-23T11:51:11;94504.53;;;15.49;51.47
63097;BME280;49185;42.320;23.198;2024-02-23T11:53:37;94503.94;;;15.28;51.50
63097;BME280;49185;42.320;23.198;2024-02-23T11:56:04;94510.97;;;15.72;52.26
63097;BME280;49185;42.320;23.198;2024-02-23T11:58:30;94498.91;;;16.37;50.04
63097;BME280;49185;42.320;23.198;2024-02-23T12:00:55;94507.38;;;16.44;48.33
63097;BME280;49185;42.320;23.198;2024-02-23T12:03:20;94494.06;;;15.72;48.43
63097;BME280;49185;42.320;23.198;2024-02-23T12:05:49;94503.91;;;16.25;49.00
63097;BME280;49185;42.320;23.198;2024-02-23T12:08:14;94501.84;;;16.93;46.98
63097;BME280;49185;42.320;23.198;2024-02-23T12:10:40;94494.47;;;16.65;47.20
63097;BME280;49185;42.320;23.198;2024-02-23T12:13:05;94480.97;;;15.94;47.63
63097;BME280;49185;42.320;23.198;2024-02-23T12:15:31;94498.13;;;15.74;48.10
63097;BME280;49185;42.320;23.198;2024-02-23T12:17:58;94496.28;;;16.13;50.17
63097;BME280;49185;42.320;23.198;2024-02-23T12:20:23;94494.09;;;16.53;46.97
63097;BME280;49185;42.320;23.198;2024-02-23T12:22:48;94483.69;;;16.32;48.08
63097;BME280;49185;42.320;23.198;2024-02-23T12:25:14;94488.94;;;16.00;49.63
63097;BME280;49185;42.320;23.198;2024-02-23T12:27:39;94484.97;;;16.16;50.18
63097;BME280;49185;42.320;23.198;2024-02-23T12:30:13;94478.69;;;15.59;48.86
63097;BME280;49185;42.320;23.198;2024-02-23T12:32:38;94478.84;;;15.43;51.33
63097;BME280;49185;42.320;23.198;2024-02-23T12:35:04;94485.59;;;15.41;51.98
63097;BME280;49185;42.320;23.198;2024-02-23T12:37:34;94475.44;;;15.37;49.35
63097;BME280;49185;42.320;23.198;2024-02-23T12:40:00;94478.78;;;15.78;49.36
63097;BME280;49185;42.320;23.198;2024-02-23T12:42:26;94489.06;;;15.41;51.48